sensor_id;sensor_type;location;lat;lon;timestamp;P1;durP1;ratioP1;P2;durP2;ratioP2
22298;SDS011;11317;51.072;17.036;2023-05-02T00:01:39;8.00;;;5.07;;
22298;SDS011;11317;51.072;17.036;2023-05-02T00:04:06;6.60;;;4.43;;
22298;SDS011;11317;51.072;17.036;2023-05-02T00:06:32;8.10;;;4.75;;
22298;SDS011;11317;51.072;17.036;2023-05-02T00:08:59;7.28;;;5.28;;
22298;SDS011;11317;51.072;17.036;2023-05-02T00:11:25;19.08;;;10.50;;
22298;SDS011;11317;51.072;17.036;2023-05-02T00:13:51;9.00;;;6.07;;
22298;SDS011;11317;51.072;17.036;2023-05-02T00:16:17;9.05;;;7.03;;
22298;SDS011;11317;51.072;17.036;2023-05-02T00:18:44;11.52;;;6.93;;
22298;SDS011;11317;51.072;17.036;2023-05-02T00:21:10;8.40;;;5.68;;
22298;SDS011;11317;51.072;17.036;2023-05-02T00:23:36;9.35;;;5.72;;
22298;SDS011;11317;51.072;17.036;2023-05-02T00:26:03;7.53;;;5.30;;
22298;SDS011;11317;51.072;17.036;2023-05-02T00:28:33;7.05;;;5.63;;
22298;SDS011;11317;51.072;17.036;2023-05-02T00:30:59;15.63;;;5.88;;
22298;SDS011;11317;51.072;17.036;2023-05-02T00:33:26;7.80;;;5.05;;
22298;SDS011;11317;51.072;17.036;2023-05-02T00:35:52;6.72;;;5.10;;
22298;SDS011;11317;51.072;17.036;2023-05-02T00:38:18;6.53;;;4.93;;
22298;SDS011;11317;51.072;17.036;2023-05-02T00:40:45;8.70;;;5.55;;
22298;SDS011;11317;51.072;17.036;2023-05-02T00:43:12;9.13;;;5.53;;
22298;SDS011;11317;51.072;17.036;2023-05-02T00:45:39;8.18;;;5.18;;
22298;SDS011;11317;51.072;17.036;2023-05-02T00:48:06;8.68;;;5.25;;
22298;SDS011;11317;51.072;17.036;2023-05-02T00:50:34;8.45;;;5.80;;
22298;SDS011;11317;51.072;17.036;2023-05-02T00:53:02;8.18;;;5.93;;
22298;SDS011;11317;51.072;17.036;2023-05-02T00:55:30;8.68;;;5.15;;
22298;SDS011;11317;51.072;17.036;2023-05-02T00:57:57;6.78;;;4.75;;
22298;SDS011;11317;51.072;17.036;2023-05-02T01:00:26;8.73;;;5.18;;
22298;SDS011;11317;51.072;17.036;2023-05-02T01:03:26;9.68;;;5.40;;
22298;SDS011;11317;51.072;17.036;2023-05-02T01:05:58;7.03;;;5.18;;
22298;SDS011;11317;51.072;17.036;2023-05-02T01:11:02;6.72;;;5.20;;
22298;SDS011;11317;51.072;17.036;2023-05-02T01:13:39;8.88;;;4.85;;
22298;SDS011;11317;51.072;17.036;2023-05-02T01:16:09;6.80;;;4.63;;
22298;SDS011;11317;51.072;17.036;2023-05-02T01:18:37;7.82;;;4.82;;
22298;SDS011;11317;51.072;17.036;2023-05-02T01:21:06;8.13;;;5.40;;
22298;SDS011;11317;51.072;17.036;2023-05-02T01:23:42;6.90;;;5.28;;
22298;SDS011;11317;51.072;17.036;2023-05-02T01:26:26;7.93;;;5.28;;
22298;SDS011;11317;51.072;17.036;2023-05-02T01:31:25;7.00;;;4.78;;
22298;SDS011;11317;51.072;17.036;2023-05-02T01:33:57;10.38;;;5.97;;
22298;SDS011;11317;51.072;17.036;2023-05-02T01:36:25;9.73;;;5.90;;
22298;SDS011;11317;51.072;17.036;2023-05-02T01:38:54;9.32;;;6.20;;
22298;SDS011;11317;51.072;17.036;2023-05-02T01:41:24;8.93;;;5.43;;
22298;SDS011;11317;51.072;17.036;2023-05-02T01:43:52;8.70;;;5.10;;
22298;SDS011;11317;51.072;17.036;2023-05-02T01:46:21;9.20;;;5.07;;
22298;SDS011;11317;51.072;17.036;2023-05-02T01:48:50;6.65;;;4.82;;
22298;SDS011;11317;51.072;17.036;2023-05-02T01:51:17;7.57;;;4.90;;
22298;SDS011;11317;51.072;17.036;2023-05-02T01:53:44;9.68;;;4.97;;
22298;SDS011;11317;51.072;17.036;2023-05-02T01:56:14;6.80;;;4.80;;
22298;SDS011;11317;51.072;17.036;2023-05-02T01:58:42;7.55;;;4.35;;
22298;SDS011;11317;51.072;17.036;2023-05-02T02:01:09;8.02;;;5.05;;
22298;SDS011;11317;51.072;17.036;2023-05-02T02:03:37;7.45;;;5.10;;
22298;SDS011;11317;51.072;17.036;2023-05-02T02:06:03;7.25;;;4.75;;
22298;SDS011;11317;51.072;17.036;2023-05-02T02:08:30;7.32;;;5.15;;
22298;SDS011;11317;51.072;17.036;2023-05-02T02:10:56;9.25;;;5.15;;
22298;SDS011;11317;51.072;17.036;2023-05-02T02:13:36;5.93;;;4.70;;
22298;SDS011;11317;51.072;17.036;2023-05-02T02:16:09;8.00;;;5.05;;
22298;SDS011;11317;51.072;17.036;2023-05-02T02:18:38;6.40;;;4.57;;
22298;SDS011;11317;51.072;17.036;2023-05-02T02:21:08;8.70;;;4.88;;
22298;SDS011;11317;51.072;17.036;2023-05-02T02:23:35;6.95;;;3.92;;
22298;SDS011;11317;51.072;17.036;2023-05-02T02:26:03;5.55;;;4.38;;
22298;SDS011;11317;51.072;17.036;2023-05-02T02:28:32;5.18;;;4.15;;
22298;SDS011;11317;51.072;17.036;2023-05-02T02:30:58;5.75;;;4.35;;
22298;SDS011;11317;51.072;17.036;2023-05-02T02:33:26;7.25;;;5.15;;
22298;SDS011;11317;51.072;17.036;2023-05-02T02:36:01;10.02;;;5.07;;
22298;SDS011;11317;51.072;17.036;2023-05-02T02:38:49;10.52;;;4.07;;
22298;SDS011;11317;51.072;17.036;2023-05-02T02:41:27;7.50;;;4.90;;
22298;SDS011;11317;51.072;17.036;2023-05-02T02:44:03;7.15;;;4.43;;
22298;SDS011;11317;51.072;17.036;2023-05-02T02:55:37;7.18;;;4.70;;
22298;SDS011;11317;51.072;17.036;2023-05-02T03:00:59;8.70;;;4.80;;
22298;SDS011;11317;51.072;17.036;2023-05-02T03:03:29;10.02;;;5.20;;
22298;SDS011;11317;51.072;17.036;2023-05-02T03:05:58;7.88;;;5.35;;
22298;SDS011;11317;51.072;17.036;2023-05-02T03:08:24;9.32;;;5.30;;
22298;SDS011;11317;51.072;17.036;2023-05-02T03:10:50;8.07;;;5.35;;
22298;SDS011;11317;51.072;17.036;2023-05-02T03:13:16;7.20;;;4.72;;
22298;SDS011;11317;51.072;17.036;2023-05-02T03:18:22;8.18;;;4.18;;
22298;SDS011;11317;51.072;17.036;2023-05-02T03:20:48;5.93;;;4.15;;
22298;SDS011;11317;51.072;17.036;2023-05-02T03:23:15;5.90;;;4.30;;
22298;SDS011;11317;51.072;17.036;2023-05-02T03:25:41;4.25;;;3.55;;
22298;SDS011;11317;51.072;17.036;2023-05-02T03:28:07;7.22;;;4.57;;
22298;SDS011;11317;51.072;17.036;2023-05-02T03:30:35;5.18;;;4.05;;
22298;SDS011;11317;51.072;17.036;2023-05-02T03:33:04;8.20;;;3.88;;
22298;SDS011;11317;51.072;17.036;2023-05-02T03:35:32;5.10;;;3.97;;
22298;SDS011;11317;51.072;17.036;2023-05-02T03:37:59;5.38;;;3.63;;
22298;SDS011;11317;51.072;17.036;2023-05-02T03:40:26;6.63;;;3.92;;
22298;SDS011;11317;51.072;17.036;2023-05-02T03:42:52;5.70;;;3.58;;
22298;SDS011;11317;51.072;17.036;2023-05-02T03:45:19;4.88;;;3.28;;
22298;SDS011;11317;51.072;17.036;2023-05-02T03:47:45;5.20;;;3.10;;
22298;SDS011;11317;51.072;17.036;2023-05-02T03:50:11;8.07;;;4.07;;
22298;SDS011;11317;51.072;17.036;2023-05-02T03:52:37;6.70;;;3.70;;
22298;SDS011;11317;51.072;17.036;2023-05-02T03:55:03;5.28;;;3.70;;
22298;SDS011;11317;51.072;17.036;2023-05-02T03:57:31;5.03;;;3.35;;
22298;SDS011;11317;51.072;17.036;2023-05-02T03:59:58;5.25;;;3.00;;
22298;SDS011;11317;51.072;17.036;2023-05-02T04:02:24;4.25;;;2.97;;
22298;SDS011;11317;51.072;17.036;2023-05-02T04:04:50;5.22;;;3.28;;
22298;SDS011;11317;51.072;17.036;2023-05-02T04:07:16;4.75;;;3.08;;
22298;SDS011;11317;51.072;17.036;2023-05-02T04:09:45;4.35;;;3.28;;
22298;SDS011;11317;51.072;17.036;2023-05-02T04:12:11;4.38;;;3.17;;
22298;SDS011;11317;51.072;17.036;2023-05-02T04:14:37;3.85;;;2.92;;
22298;SDS011;11317;51.072;17.036;2023-05-02T04:17:04;3.28;;;2.95;;
22298;SDS011;11317;51.072;17.036;2023-05-02T04:19:30;5.10;;;3.13;;
22298;SDS011;11317;51.072;17.036;2023-05-02T04:21:57;6.30;;;3.10;;
22298;SDS011;11317;51.072;17.036;2023-05-02T04:24:22;5.38;;;3.38;;
22298;SDS011;11317;51.072;17.036;2023-05-02T04:26:48;3.10;;;2.80;;
22298;SDS011;11317;51.072;17.036;2023-05-02T04:29:15;5.55;;;3.35;;
22298;SDS011;11317;51.072;17.036;2023-05-02T04:31:41;5.55;;;3.67;;
22298;SDS011;11317;51.072;17.036;2023-05-02T04:34:07;7.15;;;3.42;;
22298;SDS011;11317;51.072;17.036;2023-05-02T04:36:33;4.85;;;3.70;;
22298;SDS011;11317;51.072;17.036;2023-05-02T04:38:59;5.38;;;3.67;;
22298;SDS011;11317;51.072;17.036;2023-05-02T04:41:26;5.53;;;3.13;;
22298;SDS011;11317;51.072;17.036;2023-05-02T04:43:52;6.20;;;3.60;;
22298;SDS011;11317;51.072;17.036;2023-05-02T04:46:18;6.35;;;3.50;;
22298;SDS011;11317;51.072;17.036;2023-05-02T04:48:44;3.97;;;3.05;;
22298;SDS011;11317;51.072;17.036;2023-05-02T04:51:10;5.35;;;3.45;;
22298;SDS011;11317;51.072;17.036;2023-05-02T04:53:37;5.05;;;3.75;;
22298;SDS011;11317;51.072;17.036;2023-05-02T04:56:03;6.90;;;3.53;;
22298;SDS011;11317;51.072;17.036;2023-05-02T04:58:29;10.20;;;3.88;;
22298;SDS011;11317;51.072;17.036;2023-05-02T05:00:56;5.28;;;3.70;;
22298;SDS011;11317;51.072;17.036;2023-05-02T05:03:22;6.55;;;3.58;;
22298;SDS011;11317;51.072;17.036;2023-05-02T05:05:48;5.82;;;3.88;;
22298;SDS011;11317;51.072;17.036;2023-05-02T05:08:14;4.43;;;3.63;;
22298;SDS011;11317;51.072;17.036;2023-05-02T05:10:40;9.23;;;4.43;;
22298;SDS011;11317;51.072;17.036;2023-05-02T05:13:07;5.50;;;4.00;;
22298;SDS011;11317;51.072;17.036;2023-05-02T05:15:33;8.57;;;3.78;;
22298;SDS011;11317;51.072;17.036;2023-05-02T05:17:59;6.65;;;4.10;;
22298;SDS011;11317;51.072;17.036;2023-05-02T05:20:25;6.15;;;3.95;;
22298;SDS011;11317;51.072;17.036;2023-05-02T05:22:52;6.50;;;3.72;;
22298;SDS011;11317;51.072;17.036;2023-05-02T05:25:18;7.80;;;4.18;;
22298;SDS011;11317;51.072;17.036;2023-05-02T05:27:44;7.05;;;3.63;;
22298;SDS011;11317;51.072;17.036;2023-05-02T05:30:10;7.30;;;4.43;;
22298;SDS011;11317;51.072;17.036;2023-05-02T05:32:37;6.25;;;4.40;;
22298;SDS011;11317;51.072;17.036;2023-05-02T05:35:02;7.30;;;4.45;;
22298;SDS011;11317;51.072;17.036;2023-05-02T05:37:29;5.57;;;4.43;;
22298;SDS011;11317;51.072;17.036;2023-05-02T05:39:55;7.22;;;4.65;;
22298;SDS011;11317;51.072;17.036;2023-05-02T05:42:21;5.82;;;4.57;;
22298;SDS011;11317;51.072;17.036;2023-05-02T05:44:47;8.23;;;4.50;;
22298;SDS011;11317;51.072;17.036;2023-05-02T05:47:17;6.03;;;3.80;;
22298;SDS011;11317;51.072;17.036;2023-05-02T05:49:46;5.50;;;4.35;;
22298;SDS011;11317;51.072;17.036;2023-05-02T05:52:16;7.57;;;4.13;;
22298;SDS011;11317;51.072;17.036;2023-05-02T05:54:42;5.53;;;4.18;;
22298;SDS011;11317;51.072;17.036;2023-05-02T05:57:08;6.38;;;4.20;;
22298;SDS011;11317;51.072;17.036;2023-05-02T05:59:34;6.30;;;4.00;;
22298;SDS011;11317;51.072;17.036;2023-05-02T06:02:00;10.73;;;4.32;;
22298;SDS011;11317;51.072;17.036;2023-05-02T06:04:26;6.35;;;4.07;;
22298;SDS011;11317;51.072;17.036;2023-05-02T06:06:52;10.63;;;5.32;;
22298;SDS011;11317;51.072;17.036;2023-05-02T06:09:19;7.90;;;4.35;;
22298;SDS011;11317;51.072;17.036;2023-05-02T06:11:48;5.95;;;3.75;;
22298;SDS011;11317;51.072;17.036;2023-05-02T06:14:14;4.80;;;3.78;;
22298;SDS011;11317;51.072;17.036;2023-05-02T06:16:40;6.50;;;3.78;;
22298;SDS011;11317;51.072;17.036;2023-05-02T06:19:06;6.53;;;4.20;;
22298;SDS011;11317;51.072;17.036;2023-05-02T06:21:34;5.47;;;4.20;;
22298;SDS011;11317;51.072;17.036;2023-05-02T06:24:01;8.95;;;3.90;;
22298;SDS011;11317;51.072;17.036;2023-05-02T06:26:27;5.85;;;3.97;;
22298;SDS011;11317;51.072;17.036;2023-05-02T06:28:53;6.15;;;4.00;;
22298;SDS011;11317;51.072;17.036;2023-05-02T06:31:19;5.60;;;3.83;;
22298;SDS011;11317;51.072;17.036;2023-05-02T06:33:45;5.00;;;3.70;;
22298;SDS011;11317;51.072;17.036;2023-05-02T06:36:12;5.00;;;3.75;;
22298;SDS011;11317;51.072;17.036;2023-05-02T06:38:38;6.45;;;4.00;;
22298;SDS011;11317;51.072;17.036;2023-05-02T06:41:04;4.50;;;3.50;;
22298;SDS011;11317;51.072;17.036;2023-05-02T06:43:30;7.53;;;4.10;;
22298;SDS011;11317;51.072;17.036;2023-05-02T06:45:57;7.55;;;3.88;;
22298;SDS011;11317;51.072;17.036;2023-05-02T06:48:24;5.07;;;4.03;;
22298;SDS011;11317;51.072;17.036;2023-05-02T06:50:51;5.35;;;3.97;;
22298;SDS011;11317;51.072;17.036;2023-05-02T06:53:18;7.57;;;4.57;;
22298;SDS011;11317;51.072;17.036;2023-05-02T06:55:44;7.60;;;4.07;;
22298;SDS011;11317;51.072;17.036;2023-05-02T06:58:10;5.25;;;3.85;;
22298;SDS011;11317;51.072;17.036;2023-05-02T07:00:36;6.00;;;4.15;;
22298;SDS011;11317;51.072;17.036;2023-05-02T07:03:02;6.25;;;3.80;;
22298;SDS011;11317;51.072;17.036;2023-05-02T07:05:28;7.00;;;4.25;;
22298;SDS011;11317;51.072;17.036;2023-05-02T07:07:55;5.72;;;4.25;;
22298;SDS011;11317;51.072;17.036;2023-05-02T07:10:21;5.80;;;3.72;;
22298;SDS011;11317;51.072;17.036;2023-05-02T07:12:47;9.82;;;4.93;;
22298;SDS011;11317;51.072;17.036;2023-05-02T07:15:13;6.28;;;4.20;;
22298;SDS011;11317;51.072;17.036;2023-05-02T07:17:40;7.20;;;4.53;;
22298;SDS011;11317;51.072;17.036;2023-05-02T07:20:07;7.63;;;4.95;;
22298;SDS011;11317;51.072;17.036;2023-05-02T07:22:34;6.97;;;4.70;;
22298;SDS011;11317;51.072;17.036;2023-05-02T07:25:00;8.63;;;4.82;;
22298;SDS011;11317;51.072;17.036;2023-05-02T07:27:27;5.85;;;4.35;;
22298;SDS011;11317;51.072;17.036;2023-05-02T07:29:53;7.50;;;4.80;;
22298;SDS011;11317;51.072;17.036;2023-05-02T07:32:20;8.13;;;4.43;;
22298;SDS011;11317;51.072;17.036;2023-05-02T07:34:46;9.15;;;5.72;;
22298;SDS011;11317;51.072;17.036;2023-05-02T07:37:12;7.47;;;5.25;;
22298;SDS011;11317;51.072;17.036;2023-05-02T07:39:38;7.03;;;4.38;;
22298;SDS011;11317;51.072;17.036;2023-05-02T07:42:04;6.68;;;4.10;;
22298;SDS011;11317;51.072;17.036;2023-05-02T07:44:31;7.45;;;4.38;;
22298;SDS011;11317;51.072;17.036;2023-05-02T07:46:58;5.50;;;4.65;;
22298;SDS011;11317;51.072;17.036;2023-05-02T07:49:25;7.07;;;4.38;;
22298;SDS011;11317;51.072;17.036;2023-05-02T07:51:53;6.38;;;4.38;;
22298;SDS011;11317;51.072;17.036;2023-05-02T07:54:20;4.75;;;3.70;;
22298;SDS011;11317;51.072;17.036;2023-05-02T07:56:46;6.28;;;4.15;;
22298;SDS011;11317;51.072;17.036;2023-05-02T07:59:13;6.47;;;4.20;;
22298;SDS011;11317;51.072;17.036;2023-05-02T08:01:39;8.45;;;4.32;;
22298;SDS011;11317;51.072;17.036;2023-05-02T08:04:06;5.63;;;3.92;;
22298;SDS011;11317;51.072;17.036;2023-05-02T08:06:34;6.95;;;3.78;;
22298;SDS011;11317;51.072;17.036;2023-05-02T08:09:00;9.50;;;3.97;;
22298;SDS011;11317;51.072;17.036;2023-05-02T08:11:27;4.63;;;3.88;;
22298;SDS011;11317;51.072;17.036;2023-05-02T08:13:53;9.15;;;4.40;;
22298;SDS011;11317;51.072;17.036;2023-05-02T08:16:19;6.72;;;4.32;;
22298;SDS011;11317;51.072;17.036;2023-05-02T08:18:45;6.85;;;3.90;;
22298;SDS011;11317;51.072;17.036;2023-05-02T08:21:12;10.38;;;4.25;;
22298;SDS011;11317;51.072;17.036;2023-05-02T08:23:39;12.10;;;3.97;;
22298;SDS011;11317;51.072;17.036;2023-05-02T08:26:05;5.47;;;4.05;;
22298;SDS011;11317;51.072;17.036;2023-05-02T08:28:31;8.02;;;4.20;;
22298;SDS011;11317;51.072;17.036;2023-05-02T08:30:57;9.40;;;4.97;;
22298;SDS011;11317;51.072;17.036;2023-05-02T08:33:23;8.23;;;4.10;;
22298;SDS011;11317;51.072;17.036;2023-05-02T08:35:50;7.15;;;4.47;;
22298;SDS011;11317;51.072;17.036;2023-05-02T08:38:17;6.38;;;4.38;;
22298;SDS011;11317;51.072;17.036;2023-05-02T08:40:43;6.43;;;3.92;;
22298;SDS011;11317;51.072;17.036;2023-05-02T08:43:12;7.22;;;4.82;;
22298;SDS011;11317;51.072;17.036;2023-05-02T08:45:41;5.35;;;3.88;;
22298;SDS011;11317;51.072;17.036;2023-05-02T08:48:09;7.75;;;4.60;;
22298;SDS011;11317;51.072;17.036;2023-05-02T08:50:40;12.05;;;6.03;;
22298;SDS011;11317;51.072;17.036;2023-05-02T08:53:08;8.40;;;4.88;;
22298;SDS011;11317;51.072;17.036;2023-05-02T08:55:36;5.00;;;3.92;;
22298;SDS011;11317;51.072;17.036;2023-05-02T08:58:06;6.43;;;4.47;;
22298;SDS011;11317;51.072;17.036;2023-05-02T09:00:40;6.82;;;4.03;;
22298;SDS011;11317;51.072;17.036;2023-05-02T09:05:41;7.60;;;4.97;;
22298;SDS011;11317;51.072;17.036;2023-05-02T09:08:07;6.72;;;4.50;;
22298;SDS011;11317;51.072;17.036;2023-05-02T09:10:34;6.90;;;4.22;;
22298;SDS011;11317;51.072;17.036;2023-05-02T09:15:58;9.15;;;4.70;;
22298;SDS011;11317;51.072;17.036;2023-05-02T09:18:32;6.82;;;4.72;;
22298;SDS011;11317;51.072;17.036;2023-05-02T09:21:00;6.45;;;4.72;;
22298;SDS011;11317;51.072;17.036;2023-05-02T09:23:40;7.82;;;4.50;;
22298;SDS011;11317;51.072;17.036;2023-05-02T09:26:26;9.20;;;4.63;;
22298;SDS011;11317;51.072;17.036;2023-05-02T09:29:01;6.25;;;4.55;;
22298;SDS011;11317;51.072;17.036;2023-05-02T09:31:29;8.27;;;5.00;;
22298;SDS011;11317;51.072;17.036;2023-05-02T09:34:08;6.05;;;4.22;;
22298;SDS011;11317;51.072;17.036;2023-05-02T09:36:53;6.35;;;4.75;;
22298;SDS011;11317;51.072;17.036;2023-05-02T09:39:20;8.55;;;5.28;;
22298;SDS011;11317;51.072;17.036;2023-05-02T09:41:47;10.38;;;5.53;;
22298;SDS011;11317;51.072;17.036;2023-05-02T09:44:15;6.93;;;4.57;;
22298;SDS011;11317;51.072;17.036;2023-05-02T09:49:15;8.70;;;5.38;;
22298;SDS011;11317;51.072;17.036;2023-05-02T09:51:47;7.70;;;4.97;;
22298;SDS011;11317;51.072;17.036;2023-05-02T09:54:34;7.60;;;4.90;;
22298;SDS011;11317;51.072;17.036;2023-05-02T09:57:03;6.90;;;5.18;;
22298;SDS011;11317;51.072;17.036;2023-05-02T09:59:31;8.07;;;5.50;;
22298;SDS011;11317;51.072;17.036;2023-05-02T10:01:58;7.88;;;5.53;;
22298;SDS011;11317;51.072;17.036;2023-05-02T10:04:25;8.07;;;5.18;;
22298;SDS011;11317;51.072;17.036;2023-05-02T10:06:52;6.78;;;5.30;;
22298;SDS011;11317;51.072;17.036;2023-05-02T10:09:19;8.77;;;4.88;;
22298;SDS011;11317;51.072;17.036;2023-05-02T10:11:46;6.45;;;4.90;;
22298;SDS011;11317;51.072;17.036;2023-05-02T10:14:15;9.13;;;4.63;;
22298;SDS011;11317;51.072;17.036;2023-05-02T10:16:46;6.90;;;5.30;;
22298;SDS011;11317;51.072;17.036;2023-05-02T10:19:26;7.35;;;4.97;;
22298;SDS011;11317;51.072;17.036;2023-05-02T10:21:54;8.60;;;4.70;;
22298;SDS011;11317;51.072;17.036;2023-05-02T10:24:21;4.97;;;3.83;;
22298;SDS011;11317;51.072;17.036;2023-05-02T10:26:48;5.72;;;4.53;;
22298;SDS011;11317;51.072;17.036;2023-05-02T10:29:15;8.23;;;4.88;;
22298;SDS011;11317;51.072;17.036;2023-05-02T10:31:41;5.97;;;4.45;;
22298;SDS011;11317;51.072;17.036;2023-05-02T10:34:10;6.55;;;4.32;;
22298;SDS011;11317;51.072;17.036;2023-05-02T10:36:36;8.73;;;3.90;;
22298;SDS011;11317;51.072;17.036;2023-05-02T10:39:02;4.97;;;3.65;;
22298;SDS011;11317;51.072;17.036;2023-05-02T10:41:29;6.22;;;4.00;;
22298;SDS011;11317;51.072;17.036;2023-05-02T10:43:57;6.43;;;3.92;;
22298;SDS011;11317;51.072;17.036;2023-05-02T10:46:31;9.30;;;4.75;;
22298;SDS011;11317;51.072;17.036;2023-05-02T10:49:01;9.00;;;4.78;;
22298;SDS011;11317;51.072;17.036;2023-05-02T10:51:32;5.20;;;4.13;;
22298;SDS011;11317;51.072;17.036;2023-05-02T11:01:54;6.78;;;4.82;;
22298;SDS011;11317;51.072;17.036;2023-05-02T11:04:20;7.80;;;4.60;;
22298;SDS011;11317;51.072;17.036;2023-05-02T11:11:48;7.13;;;4.22;;
22298;SDS011;11317;51.072;17.036;2023-05-02T11:19:24;6.78;;;4.43;;
22298;SDS011;11317;51.072;17.036;2023-05-02T11:21:51;5.25;;;4.13;;
22298;SDS011;11317;51.072;17.036;2023-05-02T11:29:55;4.68;;;3.95;;
22298;SDS011;11317;51.072;17.036;2023-05-02T11:32:21;8.10;;;4.18;;
22298;SDS011;11317;51.072;17.036;2023-05-02T11:34:49;4.65;;;4.13;;
22298;SDS011;11317;51.072;17.036;2023-05-02T11:37:17;4.55;;;3.80;;
22298;SDS011;11317;51.072;17.036;2023-05-02T11:39:44;7.47;;;3.85;;
22298;SDS011;11317;51.072;17.036;2023-05-02T11:42:28;4.72;;;3.75;;
22298;SDS011;11317;51.072;17.036;2023-05-02T11:44:56;4.72;;;3.53;;
22298;SDS011;11317;51.072;17.036;2023-05-02T11:47:22;5.43;;;3.72;;
22298;SDS011;11317;51.072;17.036;2023-05-02T11:49:48;5.22;;;3.65;;
22298;SDS011;11317;51.072;17.036;2023-05-02T11:52:14;5.88;;;3.72;;
22298;SDS011;11317;51.072;17.036;2023-05-02T11:54:40;6.22;;;4.00;;
22298;SDS011;11317;51.072;17.036;2023-05-02T11:57:06;5.65;;;3.70;;
22298;SDS011;11317;51.072;17.036;2023-05-02T11:59:51;4.43;;;3.42;;
22298;SDS011;11317;51.072;17.036;2023-05-02T12:02:18;5.65;;;3.38;;
22298;SDS011;11317;51.072;17.036;2023-05-02T12:04:45;5.38;;;4.00;;
22298;SDS011;11317;51.072;17.036;2023-05-02T12:07:11;5.57;;;3.95;;
22298;SDS011;11317;51.072;17.036;2023-05-02T12:09:50;7.28;;;3.97;;
22298;SDS011;11317;51.072;17.036;2023-05-02T12:12:20;4.93;;;4.00;;
22298;SDS011;11317;51.072;17.036;2023-05-02T12:14:46;5.28;;;3.58;;
22298;SDS011;11317;51.072;17.036;2023-05-02T12:17:12;7.72;;;3.67;;
22298;SDS011;11317;51.072;17.036;2023-05-02T12:19:39;4.53;;;3.40;;
22298;SDS011;11317;51.072;17.036;2023-05-02T12:22:05;6.00;;;3.90;;
22298;SDS011;11317;51.072;17.036;2023-05-02T12:24:32;4.68;;;3.63;;
22298;SDS011;11317;51.072;17.036;2023-05-02T12:27:12;5.75;;;3.97;;
22298;SDS011;11317;51.072;17.036;2023-05-02T12:29:42;6.25;;;4.30;;
22298;SDS011;11317;51.072;17.036;2023-05-02T12:32:10;6.25;;;4.13;;
22298;SDS011;11317;51.072;17.036;2023-05-02T12:34:36;7.93;;;4.65;;
22298;SDS011;11317;51.072;17.036;2023-05-02T12:37:03;6.32;;;4.13;;
22298;SDS011;11317;51.072;17.036;2023-05-02T12:42:11;5.68;;;3.85;;
22298;SDS011;11317;51.072;17.036;2023-05-02T12:44:39;5.35;;;4.05;;
22298;SDS011;11317;51.072;17.036;2023-05-02T12:47:12;6.05;;;3.67;;
22298;SDS011;11317;51.072;17.036;2023-05-02T12:49:49;6.60;;;3.95;;
22298;SDS011;11317;51.072;17.036;2023-05-02T12:52:20;5.75;;;3.60;;
22298;SDS011;11317;51.072;17.036;2023-05-02T12:57:42;3.42;;;3.03;;
22298;SDS011;11317;51.072;17.036;2023-05-02T13:00:09;5.50;;;3.13;;
22298;SDS011;11317;51.072;17.036;2023-05-02T13:02:35;2.97;;;2.67;;
22298;SDS011;11317;51.072;17.036;2023-05-02T13:05:02;4.63;;;3.00;;
22298;SDS011;11317;51.072;17.036;2023-05-02T13:07:38;4.53;;;2.97;;
22298;SDS011;11317;51.072;17.036;2023-05-02T13:10:05;3.40;;;2.90;;
22298;SDS011;11317;51.072;17.036;2023-05-02T13:12:31;3.55;;;2.85;;
22298;SDS011;11317;51.072;17.036;2023-05-02T13:15:01;4.05;;;2.60;;
22298;SDS011;11317;51.072;17.036;2023-05-02T13:17:30;3.15;;;2.72;;
22298;SDS011;11317;51.072;17.036;2023-05-02T13:19:57;3.00;;;2.38;;
22298;SDS011;11317;51.072;17.036;2023-05-02T13:22:23;3.15;;;2.35;;
22298;SDS011;11317;51.072;17.036;2023-05-02T13:24:49;3.15;;;2.63;;
22298;SDS011;11317;51.072;17.036;2023-05-02T13:27:16;4.57;;;2.50;;
22298;SDS011;11317;51.072;17.036;2023-05-02T13:29:45;2.55;;;2.35;;
22298;SDS011;11317;51.072;17.036;2023-05-02T13:32:12;4.53;;;3.30;;
22298;SDS011;11317;51.072;17.036;2023-05-02T13:34:38;3.58;;;3.10;;
22298;SDS011;11317;51.072;17.036;2023-05-02T13:37:04;4.00;;;2.65;;
22298;SDS011;11317;51.072;17.036;2023-05-02T13:39:31;5.53;;;3.25;;
22298;SDS011;11317;51.072;17.036;2023-05-02T13:41:57;3.03;;;2.60;;
22298;SDS011;11317;51.072;17.036;2023-05-02T13:44:23;3.78;;;2.78;;
22298;SDS011;11317;51.072;17.036;2023-05-02T13:46:49;7.25;;;2.90;;
22298;SDS011;11317;51.072;17.036;2023-05-02T13:49:15;3.65;;;2.38;;
22298;SDS011;11317;51.072;17.036;2023-05-02T13:51:41;2.35;;;2.05;;
22298;SDS011;11317;51.072;17.036;2023-05-02T13:54:07;3.17;;;2.40;;
22298;SDS011;11317;51.072;17.036;2023-05-02T13:56:33;4.07;;;2.13;;
22298;SDS011;11317;51.072;17.036;2023-05-02T13:58:59;2.75;;;2.08;;
22298;SDS011;11317;51.072;17.036;2023-05-02T14:01:25;4.00;;;2.33;;
22298;SDS011;11317;51.072;17.036;2023-05-02T14:03:52;2.92;;;2.20;;
22298;SDS011;11317;51.072;17.036;2023-05-02T14:06:18;6.05;;;2.10;;
22298;SDS011;11317;51.072;17.036;2023-05-02T14:08:44;2.28;;;2.08;;
22298;SDS011;11317;51.072;17.036;2023-05-02T14:11:10;3.72;;;2.15;;
22298;SDS011;11317;51.072;17.036;2023-05-02T14:13:36;3.97;;;2.10;;
22298;SDS011;11317;51.072;17.036;2023-05-02T14:16:02;3.65;;;2.63;;
22298;SDS011;11317;51.072;17.036;2023-05-02T14:18:28;2.42;;;2.15;;
22298;SDS011;11317;51.072;17.036;2023-05-02T14:20:54;2.47;;;2.10;;
22298;SDS011;11317;51.072;17.036;2023-05-02T14:23:24;3.58;;;2.28;;
22298;SDS011;11317;51.072;17.036;2023-05-02T14:25:52;2.78;;;2.45;;
22298;SDS011;11317;51.072;17.036;2023-05-02T14:28:18;2.92;;;2.30;;
22298;SDS011;11317;51.072;17.036;2023-05-02T14:30:46;2.40;;;2.20;;
22298;SDS011;11317;51.072;17.036;2023-05-02T14:33:13;4.00;;;2.15;;
22298;SDS011;11317;51.072;17.036;2023-05-02T14:35:39;2.45;;;2.15;;
22298;SDS011;11317;51.072;17.036;2023-05-02T14:38:05;4.05;;;2.38;;
22298;SDS011;11317;51.072;17.036;2023-05-02T14:40:31;3.00;;;2.70;;
22298;SDS011;11317;51.072;17.036;2023-05-02T14:42:57;3.47;;;2.20;;
22298;SDS011;11317;51.072;17.036;2023-05-02T14:45:23;3.28;;;2.25;;
22298;SDS011;11317;51.072;17.036;2023-05-02T14:47:49;6.15;;;2.55;;
22298;SDS011;11317;51.072;17.036;2023-05-02T14:50:16;3.50;;;2.80;;
22298;SDS011;11317;51.072;17.036;2023-05-02T14:52:42;6.57;;;2.63;;
22298;SDS011;11317;51.072;17.036;2023-05-02T14:55:11;3.50;;;2.55;;
22298;SDS011;11317;51.072;17.036;2023-05-02T14:57:37;3.63;;;2.17;;
22298;SDS011;11317;51.072;17.036;2023-05-02T15:00:03;4.03;;;2.10;;
22298;SDS011;11317;51.072;17.036;2023-05-02T15:02:32;8.02;;;2.60;;
22298;SDS011;11317;51.072;17.036;2023-05-02T15:04:58;5.35;;;2.63;;
22298;SDS011;11317;51.072;17.036;2023-05-02T15:07:24;3.83;;;2.40;;
22298;SDS011;11317;51.072;17.036;2023-05-02T15:09:50;3.75;;;2.50;;
22298;SDS011;11317;51.072;17.036;2023-05-02T15:12:17;5.47;;;2.67;;
22298;SDS011;11317;51.072;17.036;2023-05-02T15:14:42;3.90;;;2.65;;
22298;SDS011;11317;51.072;17.036;2023-05-02T15:17:08;2.72;;;2.35;;
22298;SDS011;11317;51.072;17.036;2023-05-02T15:19:34;2.58;;;2.28;;
22298;SDS011;11317;51.072;17.036;2023-05-02T15:22:01;5.90;;;3.05;;
22298;SDS011;11317;51.072;17.036;2023-05-02T15:24:27;3.65;;;2.85;;
22298;SDS011;11317;51.072;17.036;2023-05-02T15:26:53;4.20;;;2.55;;
22298;SDS011;11317;51.072;17.036;2023-05-02T15:29:19;2.65;;;2.03;;
22298;SDS011;11317;51.072;17.036;2023-05-02T15:31:45;3.63;;;2.55;;
22298;SDS011;11317;51.072;17.036;2023-05-02T15:34:11;6.55;;;2.88;;